Terminal Aerodrome Forecast
Issued by NWS

Home | Current Version | Previous Version | Text Only | Print | Product List | Glossary On
Versions: 1 2 3 4 5 6 7 8 9 10 11 12 13
584
FTUS45 KFGZ 240534
TAFPGA
TAF
KPGA 240534Z 2406/2506 26006KT P6SM FEW250
      TEMPO 2406/2409 26010G20KT
     FM242100 25014G25KT P6SM BKN130=

USA.gov is the U.S. government's official web portal to all federal, state and local government web resources and services.